Time;durP1;ratioP1;P1;durP2;ratioP2;P2;SDS_P1;SDS_P2;PMS_P1;PMS_P2;Temp;Humidity;BMP_temperature;BMP_pressure;BME280_temperature;BME280_humidity;BME280_pressure;Samples;Min_cycle;Max_cycle;Signal;HPM_P1;HPM_P2
2022/08/24 00:00:23;;;;;;;8.55;6.78;;;21.70;71.90;;;;;;5074067;28;20169;-72
2022/08/24 00:02:49;;;;;;;10.15;7.05;;;21.70;75.90;;;;;;5073940;28;20683;-72
2022/08/24 00:05:16;;;;;;;11.23;5.57;;;21.70;77.80;;;;;;5074159;28;20252;-72
2022/08/24 00:07:42;;;;;;;5.78;4.50;;;21.80;78.40;;;;;;5072788;28;20208;-73
2022/08/24 00:10:10;;;;;;;7.65;5.15;;;21.90;79.20;;;;;;5073758;28;20243;-73
2022/08/24 00:12:36;;;;;;;7.03;5.00;;;21.90;73.60;;;;;;5074053;28;20262;-72
2022/08/24 00:15:04;;;;;;;7.60;4.70;;;21.80;78.50;;;;;;5073655;28;20286;-72
2022/08/24 00:17:30;;;;;;;4.63;4.22;;;21.80;81.40;;;;;;5073572;28;20253;-72
2022/08/24 00:19:59;;;;;;;8.75;5.53;;;21.80;81.60;;;;;;5073352;28;20645;-72
2022/08/24 00:22:24;;;;;;;7.93;6.80;;;21.90;79.50;;;;;;5073750;28;20643;-73
2022/08/24 00:24:50;;;;;;;10.18;8.73;;;21.90;80.30;;;;;;5072522;28;20177;-73
2022/08/24 00:27:16;;;;;;;18.08;11.70;;;21.80;84.30;;;;;;5073774;28;20172;-73
2022/08/24 00:29:41;;;;;;;22.17;16.88;;;21.80;88.80;;;;;;5072530;28;20678;-72
2022/08/24 00:32:07;;;;;;;20.90;13.50;;;21.70;92.90;;;;;;5073353;28;20176;-72
2022/08/24 00:34:33;;;;;;;15.27;13.63;;;21.70;94.50;;;;;;5073559;28;20243;-73
2022/08/24 00:36:58;;;;;;;23.25;15.77;;;21.70;98.00;;;;;;5073585;28;20160;-72
2022/08/24 00:39:24;;;;;;;27.23;19.73;;;21.60;99.70;;;;;;5073554;28;20230;-72
2022/08/24 00:41:50;;;;;;;14.13;10.02;;;21.60;99.90;;;;;;5073450;28;20166;-72
2022/08/24 00:44:17;;;;;;;18.40;13.93;;;21.60;99.90;;;;;;5073495;28;20255;-72
2022/08/24 00:46:53;;;;;;;11.57;9.52;;;21.50;99.90;;;;;;5072920;28;20187;-72
2022/08/24 00:49:42;;;;;;;24.95;18.38;;;21.60;99.90;;;;;;5073589;28;20168;-72
2022/08/24 00:52:11;;;;;;;24.73;18.08;;;21.60;99.70;;;;;;5073333;28;20165;-73
2022/08/24 00:54:41;;;;;;;25.05;17.75;;;21.60;99.90;;;;;;5073172;28;20200;-72
2022/08/24 00:57:09;;;;;;;17.30;11.45;;;21.60;99.90;;;;;;5073240;28;20184;-73
2022/08/24 00:59:53;;;;;;;14.35;11.95;;;21.70;98.80;;;;;;5072882;28;20173;-73
2022/08/24 01:02:25;;;;;;;15.98;12.07;;;21.70;97.20;;;;;;5073316;28;20176;-72
2022/08/24 01:04:56;;;;;;;6.85;5.80;;;21.70;96.40;;;;;;5073001;28;20168;-72
2022/08/24 01:07:25;;;;;;;6.93;6.22;;;21.60;95.00;;;;;;5073089;28;20652;-73
2022/08/24 01:09:52;;;;;;;6.38;5.22;;;21.60;96.80;;;;;;5071418;28;20722;-72
2022/08/24 01:12:18;;;;;;;10.98;9.77;;;21.60;97.70;;;;;;5073167;28;20179;-73
2022/08/24 01:14:44;;;;;;;10.25;6.82;;;21.50;99.70;;;;;;5072640;28;20208;-73
2022/08/24 01:19:57;;;;;;;8.05;6.45;;;21.50;99.90;;;;;;5073292;28;20179;-72
2022/08/24 01:22:47;;;;;;;10.20;7.40;;;21.40;98.90;;;;;;5071724;28;20230;-72
2022/08/24 01:25:13;;;;;;;9.07;7.95;;;21.40;99.90;;;;;;5073067;28;20208;-72
2022/08/24 01:27:40;;;;;;;9.50;7.85;;;21.40;99.90;;;;;;5071570;28;20200;-71
2022/08/24 01:30:10;;;;;;;7.97;6.30;;;21.40;99.90;;;;;;5072559;28;20171;-73
2022/08/24 01:32:35;;;;;;;6.70;4.97;;;21.40;98.80;;;;;;5075410;28;20263;-73
2022/08/24 01:35:02;;;;;;;5.97;5.32;;;21.50;98.90;;;;;;5077050;28;20334;-73
2022/08/24 01:37:28;;;;;;;10.32;9.10;;;21.60;95.70;;;;;;5076942;28;20198;-72
2022/08/24 01:39:56;;;;;;;16.52;10.07;;;21.60;93.60;;;;;;5076789;28;20172;-71
2022/08/24 01:42:22;;;;;;;5.72;5.22;;;21.60;92.80;;;;;;5076719;28;20171;-71
2022/08/24 01:44:47;;;;;;;6.05;4.88;;;21.50;87.80;;;;;;5076408;28;20168;-72
2022/08/24 01:47:15;;;;;;;5.45;4.03;;;21.50;92.90;;;;;;5076870;28;20196;-71
2022/08/24 01:49:45;;;;;;;5.28;4.78;;;21.50;92.30;;;;;;5076816;28;20187;-71
2022/08/24 01:52:15;;;;;;;10.85;6.32;;;21.50;92.20;;;;;;5076844;28;20161;-72
2022/08/24 01:54:41;;;;;;;5.57;4.50;;;21.50;91.70;;;;;;5075505;28;20212;-72
2022/08/24 01:57:08;;;;;;;6.25;4.85;;;21.50;88.20;;;;;;5076667;28;20172;-72
2022/08/24 01:59:33;;;;;;;4.85;3.85;;;21.60;86.10;;;;;;5076451;28;20169;-71
2022/08/24 02:02:08;;;;;;;4.10;3.80;;;21.50;84.60;;;;;;5076495;28;20169;-71
2022/08/24 02:04:34;;;;;;;3.83;3.60;;;21.50;84.20;;;;;;5076553;28;20171;-72
2022/08/24 02:07:00;;;;;;;3.95;3.45;;;21.50;87.80;;;;;;5076704;28;20256;-72
2022/08/24 02:09:26;;;;;;;4.28;3.90;;;21.40;85.00;;;;;;5076223;28;20306;-71
2022/08/24 02:11:53;;;;;;;4.82;3.58;;;21.40;87.70;;;;;;5076025;28;20183;-71
2022/08/24 02:14:19;;;;;;;3.90;3.60;;;21.40;86.60;;;;;;5076184;28;20209;-71
2022/08/24 02:16:45;;;;;;;5.68;4.07;;;21.40;83.90;;;;;;5075122;28;20259;-72
2022/08/24 02:19:11;;;;;;;4.93;4.53;;;21.40;81.50;;;;;;5076135;28;20648;-72
2022/08/24 02:21:37;;;;;;;6.30;4.50;;;21.40;83.70;;;;;;5075958;28;20243;-72
2022/08/24 02:24:03;;;;;;;5.55;4.57;;;21.30;82.50;;;;;;5075901;28;20173;-71
2022/08/24 02:26:28;;;;;;;6.55;4.60;;;21.30;86.40;;;;;;5075907;28;20624;-71
2022/08/24 02:28:54;;;;;;;6.88;4.40;;;21.20;92.90;;;;;;5076037;28;20229;-71
2022/08/24 02:31:20;;;;;;;4.32;3.83;;;21.10;97.90;;;;;;5076017;28;20523;-71
2022/08/24 02:33:45;;;;;;;5.05;4.10;;;21.10;99.90;;;;;;5075795;28;20306;-71
2022/08/24 02:36:12;;;;;;;7.57;4.80;;;21.10;99.90;;;;;;5075800;28;20168;-72
2022/08/24 02:38:38;;;;;;;5.15;4.43;;;21.00;99.90;;;;;;5075656;28;20647;-71
2022/08/24 02:41:04;;;;;;;5.80;4.60;;;21.00;99.90;;;;;;5075223;28;20257;-71
2022/08/24 02:43:30;;;;;;;4.78;4.13;;;21.00;99.90;;;;;;5074751;28;20172;-72
2022/08/24 02:45:56;;;;;;;7.97;3.70;;;21.00;99.90;;;;;;5075692;28;20233;-71
2022/08/24 02:48:22;;;;;;;8.40;4.40;;;21.00;99.90;;;;;;5075559;28;20251;-72
2022/08/24 02:50:50;;;;;;;9.10;4.38;;;21.00;99.90;;;;;;5075453;28;20505;-71
2022/08/24 02:53:18;;;;;;;5.88;3.50;;;21.10;99.90;;;;;;5075363;28;20315;-72
2022/08/24 02:55:44;;;;;;;5.18;4.32;;;21.10;99.90;;;;;;5074043;28;20242;-71
2022/08/24 02:58:11;;;;;;;5.15;4.38;;;21.10;99.90;;;;;;5075530;28;20167;-71
2022/08/24 03:00:39;;;;;;;6.80;4.00;;;21.10;99.90;;;;;;5075541;28;20176;-71
2022/08/24 03:03:07;;;;;;;5.22;4.70;;;21.10;98.40;;;;;;5075167;28;20176;-73
2022/08/24 03:05:34;;;;;;;6.00;4.78;;;21.10;99.80;;;;;;5075362;28;20173;-71
2022/08/24 03:08:00;;;;;;;6.88;4.72;;;21.00;99.90;;;;;;5074929;28;20179;-71
2022/08/24 03:10:26;;;;;;;4.97;4.28;;;21.10;99.90;;;;;;5075048;28;20172;-71
2022/08/24 03:12:52;;;;;;;5.30;4.68;;;21.10;99.80;;;;;;5075084;28;20213;-72
2022/08/24 03:15:21;;;;;;;4.78;4.20;;;21.20;99.10;;;;;;5075009;28;20238;-72
2022/08/24 03:17:48;;;;;;;8.38;4.45;;;21.20;99.00;;;;;;5074848;28;20169;-72
2022/08/24 03:20:18;;;;;;;10.13;7.45;;;21.10;99.90;;;;;;5074822;28;20203;-72
2022/08/24 03:22:45;;;;;;;9.60;7.38;;;21.10;99.90;;;;;;5075550;28;20176;-73
2022/08/24 03:25:12;;;;;;;8.95;6.40;;;21.10;99.90;;;;;;5074724;28;20177;-72
2022/08/24 03:27:38;;;;;;;10.52;7.50;;;21.00;99.90;;;;;;5074857;28;20168;-71
2022/08/24 03:30:05;;;;;;;9.18;8.30;;;21.00;99.90;;;;;;5074992;28;20164;-72
2022/08/24 03:32:31;;;;;;;11.52;8.55;;;21.00;99.90;;;;;;5074587;28;20176;-73
2022/08/24 03:34:56;;;;;;;10.75;8.02;;;21.10;99.90;;;;;;5074452;28;20211;-73
2022/08/24 03:37:22;;;;;;;10.65;9.60;;;21.10;99.90;;;;;;5074524;28;20264;-72
2022/08/24 03:39:49;;;;;;;11.82;10.65;;;21.10;99.90;;;;;;5074373;28;20639;-72
2022/08/24 03:42:15;;;;;;;11.68;9.48;;;21.10;99.90;;;;;;5072828;28;20172;-72
2022/08/24 03:44:41;;;;;;;11.93;8.45;;;21.10;99.90;;;;;;5074466;28;20172;-72
2022/08/24 03:47:09;;;;;;;8.55;6.97;;;20.90;99.90;;;;;;5074328;28;20180;-72
2022/08/24 03:49:35;;;;;;;12.98;7.10;;;20.90;99.90;;;;;;5075068;28;20165;-72
2022/08/24 03:52:02;;;;;;;7.55;6.75;;;20.90;99.90;;;;;;5073951;28;20620;-71
2022/08/24 03:54:27;;;;;;;10.43;7.30;;;20.80;99.90;;;;;;5073772;28;20746;-71
2022/08/24 03:56:54;;;;;;;8.50;5.90;;;20.80;99.90;;;;;;5073934;28;20196;-71
2022/08/24 03:59:20;;;;;;;12.88;5.63;;;20.80;99.90;;;;;;5074538;28;20233;-73
2022/08/24 04:01:45;;;;;;;10.65;6.25;;;20.70;99.90;;;;;;5074097;28;20165;-72
2022/08/24 04:04:11;;;;;;;8.05;5.35;;;20.60;99.90;;;;;;5073663;28;20172;-71
2022/08/24 04:06:37;;;;;;;8.55;5.65;;;20.50;99.90;;;;;;5073693;28;20196;-72
2022/08/24 04:09:04;;;;;;;15.30;6.20;;;20.50;99.90;;;;;;5071549;28;20220;-72
2022/08/24 04:11:30;;;;;;;11.10;5.97;;;20.40;99.90;;;;;;5074144;28;20172;-72
2022/08/24 04:13:57;;;;;;;13.65;5.57;;;20.40;99.90;;;;;;5073419;28;20310;-71
2022/08/24 04:16:23;;;;;;;9.10;5.60;;;20.30;99.90;;;;;;5073323;28;20169;-72
2022/08/24 04:18:49;;;;;;;12.88;5.85;;;20.20;99.90;;;;;;5073498;28;20172;-72
2022/08/24 04:21:20;;;;;;;9.32;6.07;;;20.20;99.90;;;;;;5073057;28;20271;-72
2022/08/24 04:23:46;;;;;;;10.60;6.05;;;20.20;99.90;;;;;;5073204;28;20203;-72
2022/08/24 04:26:13;;;;;;;10.98;6.70;;;20.20;99.90;;;;;;5073706;28;20169;-72
2022/08/24 04:28:39;;;;;;;11.45;6.18;;;20.10;99.90;;;;;;5073650;28;20512;-72
2022/08/24 04:31:05;;;;;;;10.18;6.68;;;20.10;99.90;;;;;;5073407;28;20160;-72
2022/08/24 04:33:31;;;;;;;9.80;6.78;;;20.10;99.90;;;;;;5072960;28;20235;-72
2022/08/24 04:35:57;;;;;;;11.75;6.22;;;20.00;99.90;;;;;;5073503;28;20656;-72
2022/08/24 04:38:23;;;;;;;14.45;7.90;;;20.10;99.90;;;;;;5072871;28;20167;-72
2022/08/24 04:40:49;;;;;;;10.23;7.97;;;20.10;99.90;;;;;;5073421;28;20712;-72
2022/08/24 04:43:15;;;;;;;12.93;7.90;;;20.10;99.90;;;;;;5073204;28;20273;-72
2022/08/24 04:45:44;;;;;;;14.55;8.25;;;20.10;99.90;;;;;;5073009;28;20611;-72
2022/08/24 04:48:10;;;;;;;13.20;7.95;;;20.10;99.90;;;;;;5073401;28;20586;-72
2022/08/24 04:50:38;;;;;;;13.00;8.50;;;20.10;99.90;;;;;;5073008;28;20173;-72
2022/08/24 04:53:05;;;;;;;9.65;7.70;;;20.20;99.90;;;;;;5072175;28;20226;-71
2022/08/24 04:55:31;;;;;;;15.23;7.70;;;20.20;99.90;;;;;;5072887;28;20644;-72
2022/08/24 04:57:57;;;;;;;17.38;9.38;;;20.30;99.90;;;;;;5073068;28;20173;-72
2022/08/24 05:00:23;;;;;;;13.10;8.57;;;20.40;99.90;;;;;;5071598;28;20180;-72
2022/08/24 05:02:48;;;;;;;16.73;8.38;;;20.50;99.90;;;;;;5072442;28;20264;-74
2022/08/24 05:05:14;;;;;;;15.18;7.47;;;20.90;99.90;;;;;;5072996;28;20200;-72
2022/08/24 05:07:40;;;;;;;16.08;7.43;;;21.30;99.90;;;;;;5072110;28;20251;-73
2022/08/24 05:10:08;;;;;;;13.07;6.75;;;21.70;99.90;;;;;;5071897;28;20228;-73
2022/08/24 05:12:34;;;;;;;9.95;6.78;;;22.20;99.90;;;;;;5071283;28;20500;-73
2022/08/24 05:15:00;;;;;;;11.50;6.65;;;22.70;88.90;;;;;;5072279;28;20210;-73
2022/08/24 05:17:26;;;;;;;13.10;6.32;;;23.40;55.30;;;;;;5072772;28;20179;-73
2022/08/24 05:19:52;;;;;;;9.98;5.65;;;24.20;15.20;;;;;;5072281;28;20530;-73
2022/08/24 05:22:18;;;;;;;15.68;6.05;;;24.90;1.00;;;;;;5071810;28;20165;-73
2022/08/24 05:24:43;;;;;;;10.85;5.70;;;25.70;1.00;;;;;;5072275;28;20180;-73
2022/08/24 05:27:09;;;;;;;11.82;5.10;;;26.50;1.00;;;;;;5072932;28;20172;-73
2022/08/24 05:29:36;;;;;;;17.33;5.15;;;27.20;1.00;;;;;;5071826;28;20203;-74
2022/08/24 05:32:02;;;;;;;12.18;5.65;;;27.70;99.90;;;;;;5072786;28;20200;-74
2022/08/24 05:34:28;;;;;;;12.93;5.45;;;27.50;99.90;;;;;;5072723;28;20235;-74
2022/08/24 05:36:53;;;;;;;11.48;5.03;;;27.20;1.00;;;;;;5071947;28;20692;-74
2022/08/24 05:39:19;;;;;;;14.85;7.45;;;27.70;99.90;;;;;;5072610;28;20560;-74
2022/08/24 05:41:46;;;;;;;13.30;6.43;;;28.70;1.00;;;;;;5071800;28;20165;-75
2022/08/24 05:44:17;;;;;;;14.68;8.80;;;29.30;1.00;;;;;;5072433;28;20226;-75
2022/08/24 05:46:43;;;;;;;14.20;7.45;;;30.10;99.90;;;;;;5070844;28;20906;-75
2022/08/24 05:49:09;;;;;;;14.10;8.40;;;30.40;99.90;;;;;;5071871;28;20571;-76
2022/08/24 05:51:37;;;;;;;15.98;13.63;;;31.10;1.00;;;;;;5071411;28;20165;-77
2022/08/24 05:54:03;;;;;;;16.20;11.85;;;30.90;1.00;;;;;;5072291;28;20201;-76
2022/08/24 05:56:29;;;;;;;19.00;17.13;;;30.60;99.90;;;;;;5071588;28;20161;-75
2022/08/24 05:58:55;;;;;;;21.20;17.77;;;29.80;99.90;;;;;;5071264;28;20544;-76
2022/08/24 06:01:23;;;;;;;24.75;18.65;;;28.50;1.00;;;;;;5071746;28;20266;-75
2022/08/24 06:03:51;;;;;;;22.95;17.83;;;27.40;1.00;;;;;;5071573;28;20165;-75
2022/08/24 06:06:19;;;;;;;20.73;17.92;;;27.10;1.00;;;;;;5072213;28;20266;-75
2022/08/24 06:08:47;;;;;;;26.30;19.30;;;27.10;1.00;;;;;;5071482;28;20235;-77
2022/08/24 06:11:29;;;;;;;27.20;17.02;;;27.20;1.00;;;;;;5071100;28;20180;-78
2022/08/24 06:13:59;;;;;;;20.52;18.42;;;27.80;99.90;;;;;;5072027;28;20204;-77
2022/08/24 06:16:25;;;;;;;23.90;19.88;;;28.80;1.00;;;;;;5071396;28;20165;-79
2022/08/24 06:18:52;;;;;;;21.35;18.80;;;29.00;1.00;;;;;;5072595;28;20165;-77
2022/08/24 06:21:21;;;;;;;21.23;16.77;;;29.90;1.00;;;;;;5075408;28;20188;-78
2022/08/24 06:23:47;;;;;;;22.77;18.88;;;31.30;1.00;;;;;;5075093;28;20544;-79
2022/08/24 06:28:59;;;;;;;21.05;17.95;;;33.80;1.00;;;;;;5075682;28;20269;-78
2022/08/24 06:31:26;;;;;;;20.58;17.40;;;34.00;1.00;;;;;;5075202;28;20252;-79
2022/08/24 06:33:52;;;;;;;21.90;15.60;;;33.40;1.00;;;;;;5075094;28;20200;-77
2022/08/24 06:36:17;;;;;;;19.88;15.60;;;34.00;1.00;;;;;;5075155;28;20169;-76
2022/08/24 06:38:43;;;;;;;19.88;15.55;;;33.70;1.00;;;;;;5075265;28;20482;-78
2022/08/24 06:41:09;;;;;;;23.05;16.20;;;33.30;1.00;;;;;;5074886;28;20267;-77
2022/08/24 06:43:35;;;;;;;22.95;15.63;;;33.10;1.00;;;;;;5073720;28;20575;-78
2022/08/24 06:46:01;;;;;;;21.23;17.02;;;33.30;1.00;;;;;;5074974;28;20226;-77
2022/08/24 06:48:29;;;;;;;20.90;17.88;;;33.10;1.00;;;;;;5074573;28;20580;-77
2022/08/24 06:50:56;;;;;;;20.58;16.92;;;33.50;1.00;;;;;;5074739;28;20268;-77
2022/08/24 06:53:21;;;;;;;21.05;16.13;;;33.60;1.00;;;;;;5073765;28;20646;-77
2022/08/24 06:55:53;;;;;;;18.00;16.20;;;33.60;1.00;;;;;;5074375;28;20180;-77
2022/08/24 06:58:20;;;;;;;20.48;15.80;;;33.50;1.00;;;;;;5075040;28;20212;-76
2022/08/24 07:00:46;;;;;;;20.33;15.13;;;33.30;1.00;;;;;;5074662;28;20199;-76
2022/08/24 07:03:12;;;;;;;22.67;16.17;;;32.40;1.00;;;;;;5073868;28;20652;-76
2022/08/24 07:05:39;;;;;;;23.10;16.42;;;31.60;99.90;;;;;;5074228;28;20199;-75
2022/08/24 07:08:05;;;;;;;20.65;16.48;;;31.30;1.00;;;;;;5073843;28;20636;-76
2022/08/24 07:10:33;;;;;;;18.70;16.25;;;30.90;99.90;;;;;;5073414;28;20229;-74
2022/08/24 07:12:59;;;;;;;19.52;16.00;;;30.20;1.00;;;;;;5082449;28;20666;-74
2022/08/24 07:15:26;;;;;;;22.23;15.90;;;29.80;99.90;;;;;;5070303;28;20211;-75
2022/08/24 07:17:52;;;;;;;19.00;14.55;;;29.80;99.90;;;;;;5076871;28;20314;-75
2022/08/24 07:20:18;;;;;;;17.00;15.32;;;30.50;99.90;;;;;;5078826;28;20193;-76
2022/08/24 07:22:44;;;;;;;19.40;16.73;;;30.30;99.90;;;;;;5074854;28;20176;-75
2022/08/24 07:25:11;;;;;;;21.40;15.05;;;29.80;99.90;;;;;;5077342;28;20173;-73
2022/08/24 07:27:38;;;;;;;19.95;15.48;;;30.50;1.00;;;;;;5088655;28;20173;-75
2022/08/24 07:30:05;;;;;;;20.42;14.10;;;31.10;99.90;;;;;;5086016;28;20172;-75
2022/08/24 07:32:32;;;;;;;16.90;14.32;;;31.40;1.00;;;;;;5082103;28;20161;-76
2022/08/24 07:34:58;;;;;;;18.63;13.32;;;31.70;99.90;;;;;;5087825;28;20209;-77
2022/08/24 07:37:24;;;;;;;20.70;13.85;;;32.20;99.90;;;;;;5095466;28;20200;-77
2022/08/24 07:39:49;;;;;;;17.75;12.18;;;33.70;1.00;;;;;;5110240;28;20198;-76
2022/08/24 07:42:15;;;;;;;15.63;11.23;;;35.30;99.90;;;;;;5095365;28;20631;-78
2022/08/24 07:44:41;;;;;;;21.63;10.93;;;36.00;99.90;;;;;;5099382;28;20179;-77
2022/08/24 07:47:06;;;;;;;16.15;10.68;;;35.80;99.90;;;;;;5113237;28;20175;-76
2022/08/24 07:49:32;;;;;;;15.32;11.45;;;35.50;99.90;;;;;;5098569;28;20700;-76
2022/08/24 07:51:57;;;;;;;17.45;10.50;;;33.30;99.90;;;;;;5110200;28;20699;-76
2022/08/24 07:54:23;;;;;;;16.02;9.40;;;31.40;99.90;;;;;;5093611;28;20286;-76
2022/08/24 07:56:49;;;;;;;16.45;8.60;;;30.70;1.00;;;;;;5094572;28;20160;-76
2022/08/24 07:59:15;;;;;;;17.42;8.85;;;30.10;1.00;;;;;;5092285;28;20751;-75
2022/08/24 08:01:41;;;;;;;12.32;8.35;;;29.20;99.90;;;;;;5092817;28;20164;-75
2022/08/24 08:04:08;;;;;;;18.67;8.38;;;28.60;99.90;;;;;;5099862;28;20248;-74
2022/08/24 08:06:34;;;;;;;22.35;9.63;;;28.30;99.90;;;;;;5096813;28;20163;-73
2022/08/24 08:09:01;;;;;;;14.63;10.35;;;27.80;1.00;;;;;;5102038;28;20224;-75
2022/08/24 08:11:26;;;;;;;16.48;8.55;;;27.90;1.00;;;;;;5082535;28;20199;-75
2022/08/24 08:13:53;;;;;;;15.07;9.98;;;28.20;1.00;;;;;;5072642;28;20196;-74
2022/08/24 08:16:20;;;;;;;23.50;11.13;;;28.30;99.90;;;;;;5091641;28;20227;-75
2022/08/24 08:18:45;;;;;;;17.00;10.27;;;28.40;1.00;;;;;;5085294;28;20278;-74
2022/08/24 08:24:13;;;;;;;16.05;8.70;;;28.60;1.00;;;;;;5109603;28;20182;-73
2022/08/24 08:26:40;;;;;;;13.70;8.70;;;29.10;99.90;;;;;;5106592;28;20182;-70
2022/08/24 08:29:07;;;;;;;9.75;8.07;;;29.50;99.90;;;;;;5101458;28;20575;-78
2022/08/24 08:31:32;;;;;;;8.18;7.38;;;30.10;1.00;;;;;;5098590;28;20690;-74
2022/08/24 08:33:58;;;;;;;9.77;8.57;;;30.10;1.00;;;;;;5109570;28;20289;-74
2022/08/24 08:36:24;;;;;;;11.93;9.07;;;29.60;1.00;;;;;;5096332;28;20167;-73
2022/08/24 08:38:50;;;;;;;9.85;7.90;;;29.10;1.00;;;;;;5104172;28;20168;-75
2022/08/24 08:41:18;;;;;;;10.48;8.73;;;29.00;99.90;;;;;;5103128;28;20178;-74
2022/08/24 08:44:06;;;;;;;9.60;7.97;;;28.80;99.90;;;;;;5096895;28;20266;-73
2022/08/24 08:46:43;;;;;;;10.13;9.18;;;29.10;1.00;;;;;;5082794;28;20606;-75
2022/08/24 08:49:40;;;;;;;11.07;9.48;;;29.10;1.00;;;;;;5101140;28;20194;-75
2022/08/24 08:52:09;;;;;;;11.63;9.35;;;28.90;97.00;;;;;;5094191;28;20176;-75
2022/08/24 08:54:47;;;;;;;13.85;9.88;;;28.90;34.70;;;;;;5106618;28;20629;-75
2022/08/24 08:57:26;;;;;;;10.23;8.55;;;28.80;1.00;;;;;;5103901;28;20678;-75
2022/08/24 09:00:18;;;;;;;9.77;8.90;;;28.90;1.00;;;;;;5095114;28;20175;-75
2022/08/24 09:03:21;;;;;;;9.32;7.75;;;28.90;1.00;;;;;;5086065;28;20174;-74
2022/08/24 09:06:29;;;;;;;8.55;7.57;;;29.30;99.90;;;;;;5096083;28;20533;-75
2022/08/24 09:09:14;;;;;;;10.15;9.15;;;28.60;99.90;;;;;;5089201;28;20601;-74
2022/08/24 09:12:07;;;;;;;7.53;6.93;;;27.90;1.00;;;;;;5097111;28;20172;-75
2022/08/24 09:14:57;;;;;;;10.30;9.30;;;27.30;1.00;;;;;;5082608;28;20316;-74
2022/08/24 09:17:45;;;;;;;10.55;7.68;;;27.50;99.90;;;;;;5099533;28;20175;-74
2022/08/24 09:20:22;;;;;;;9.60;8.80;;;28.20;1.00;;;;;;5108280;28;20279;-73
2022/08/24 09:23:13;;;;;;;8.35;7.57;;;29.30;1.00;;;;;;5090629;28;20172;-72
2022/08/24 09:26:13;;;;;;;9.15;8.25;;;29.10;1.00;;;;;;5105887;28;20171;-74
2022/08/24 09:29:12;;;;;;;8.63;7.60;;;30.10;99.90;;;;;;5084631;28;20183;-73
2022/08/24 09:32:10;;;;;;;8.55;7.35;;;30.70;1.00;;;;;;5096439;28;20199;-73
2022/08/24 09:34:56;;;;;;;11.00;7.65;;;31.10;99.90;;;;;;5083949;28;20203;-73
2022/08/24 09:37:49;;;;;;;6.00;5.40;;;31.70;1.00;;;;;;5094839;28;20175;-74
2022/08/24 09:40:35;;;;;;;6.10;5.32;;;32.30;1.00;;;;;;5084030;28;20606;-74
2022/08/24 09:43:39;;;;;;;5.72;5.22;;;32.90;1.00;;;;;;5097623;28;20203;-75
2022/08/24 09:46:10;;;;;;;5.40;4.90;;;33.10;99.90;;;;;;5073731;28;20600;-74
2022/08/24 09:48:53;;;;;;;7.43;6.30;;;33.90;99.90;;;;;;5088491;28;20724;-73
2022/08/24 09:51:37;;;;;;;7.10;5.60;;;33.80;99.90;;;;;;5084346;28;20529;-73
2022/08/24 09:54:24;;;;;;;4.65;4.15;;;34.50;99.90;;;;;;5100552;28;20645;-73
2022/08/24 09:57:10;;;;;;;3.45;3.08;;;34.40;99.90;;;;;;5091436;28;20168;-74
2022/08/24 09:59:50;;;;;;;3.72;3.40;;;33.90;99.90;;;;;;5109695;28;20175;-74
2022/08/24 10:02:32;;;;;;;4.35;3.95;;;33.10;99.90;;;;;;5110852;28;20275;-73
2022/08/24 10:05:29;;;;;;;4.90;4.50;;;33.10;99.90;;;;;;5106213;28;20259;-75
2022/08/24 10:08:13;;;;;;;3.50;3.10;;;33.20;99.90;;;;;;5112078;28;20320;-74
2022/08/24 10:10:45;;;;;;;4.20;3.85;;;34.00;99.90;;;;;;5101443;28;20552;-75
2022/08/24 10:13:35;;;;;;;3.70;3.30;;;33.20;99.90;;;;;;5101888;28;20178;-74
2022/08/24 10:16:37;;;;;;;3.95;3.67;;;33.90;99.90;;;;;;5084471;28;20195;-75
2022/08/24 10:19:21;;;;;;;3.38;3.08;;;35.00;99.90;;;;;;5104296;28;20261;-75
2022/08/24 10:22:14;;;;;;;3.15;2.88;;;36.00;99.90;;;;;;5092113;28;20263;-75
2022/08/24 10:24:58;;;;;;;6.40;3.25;;;35.50;99.90;;;;;;5097777;28;20265;-75
2022/08/24 10:27:43;;;;;;;7.30;3.20;;;36.10;99.90;;;;;;5093721;28;20167;-77
2022/08/24 10:30:38;;;;;;;6.47;2.83;;;36.40;99.90;;;;;;5091819;28;20178;-77
2022/08/24 10:33:19;;;;;;;3.95;2.63;;;37.70;99.90;;;;;;5087292;28;20213;-77
2022/08/24 10:36:07;;;;;;;2.55;2.35;;;37.80;99.90;;;;;;5107989;28;20170;-79
2022/08/24 10:41:56;;;;;;;3.70;2.92;;;35.80;99.90;;;;;;5104407;28;20589;-76
2022/08/24 10:44:46;;;;;;;3.35;2.40;;;35.20;99.90;;;;;;5082114;28;20155;-76
2022/08/24 10:47:27;;;;;;;2.28;2.08;;;34.60;99.90;;;;;;5102521;28;20175;-77
2022/08/24 10:50:14;;;;;;;2.72;2.10;;;34.10;99.90;;;;;;5105779;28;20167;-77
2022/08/24 10:52:52;;;;;;;2.53;2.33;;;34.10;99.90;;;;;;5082298;28;20171;-77
2022/08/24 10:55:25;;;;;;;2.78;2.45;;;35.40;99.90;;;;;;5095024;28;20298;-77
2022/08/24 10:58:16;;;;;;;3.08;2.00;;;36.10;99.90;;;;;;5093751;28;20185;-76
2022/08/24 11:00:41;;;;;;;3.25;1.80;;;35.80;99.90;;;;;;5082501;28;20265;-76
2022/08/24 11:03:09;;;;;;;1.92;1.83;;;35.20;99.90;;;;;;5101789;28;20258;-75
2022/08/24 11:05:45;;;;;;;4.20;2.83;;;33.50;99.90;;;;;;5100941;28;20631;-76
2022/08/24 11:08:19;;;;;;;3.17;1.90;;;34.00;99.90;;;;;;5111000;28;21085;-76
2022/08/24 11:11:01;;;;;;;2.97;2.00;;;33.20;99.90;;;;;;5100455;28;20173;-74
2022/08/24 11:13:26;;;;;;;5.00;4.50;;;33.30;99.90;;;;;;5102724;28;20180;-75
2022/08/24 11:15:58;;;;;;;1.65;1.55;;;33.60;99.90;;;;;;5109155;28;20515;-75
2022/08/24 11:18:44;;;;;;;1.60;1.20;;;34.10;99.90;;;;;;5097025;27;20168;-75
2022/08/24 11:21:10;;;;;;;2.30;2.10;;;34.40;99.90;;;;;;5104957;28;20241;-77
2022/08/24 11:23:39;;;;;;;2.58;2.15;;;34.80;99.90;;;;;;5105294;28;20175;-78
2022/08/24 11:26:17;;;;;;;2.10;1.90;;;34.80;99.90;;;;;;5096418;28;20183;-79
2022/08/24 11:28:49;;;;;;;4.05;2.17;;;33.50;99.90;;;;;;5108978;28;20313;-77
2022/08/24 11:31:34;;;;;;;1.77;1.30;;;33.00;99.90;;;;;;5087705;28;20180;-77
2022/08/24 11:34:06;;;;;;;2.55;1.25;;;33.30;99.90;;;;;;5090437;28;20234;-76
2022/08/24 11:36:35;;;;;;;4.47;1.30;;;34.50;99.90;;;;;;5088905;28;20634;-76
2022/08/24 11:39:16;;;;;;;2.05;1.23;;;35.60;88.70;;;;;;5090297;28;20228;-76
2022/08/24 11:42:05;;;;;;;2.03;1.42;;;36.90;86.90;;;;;;5088871;28;20168;-75
2022/08/24 11:44:41;;;;;;;2.63;1.38;;;36.10;74.80;;;;;;5079760;28;20171;-75
2022/08/24 11:47:31;;;;;;;2.35;1.40;;;34.70;94.10;;;;;;5094271;28;20175;-76
2022/08/24 11:50:06;;;;;;;4.53;1.52;;;34.70;94.00;;;;;;5094645;28;20265;-74
2022/08/24 11:52:51;;;;;;;1.58;1.30;;;34.20;48.50;;;;;;5078993;28;20583;-76
2022/08/24 11:55:38;;;;;;;3.40;1.50;;;33.70;99.90;;;;;;5094093;28;20219;-74
2022/08/24 11:58:39;;;;;;;1.90;1.70;;;32.90;99.90;;;;;;5095112;28;20168;-76
2022/08/24 12:01:14;;;;;;;2.05;1.73;;;33.20;99.90;;;;;;5083101;28;20205;-75
2022/08/24 12:04:04;;;;;;;2.90;2.42;;;32.60;99.90;;;;;;5105448;28;20171;-75
2022/08/24 12:07:01;;;;;;;2.88;2.30;;;32.30;99.90;;;;;;5092831;28;20172;-77
2022/08/24 12:09:27;;;;;;;2.63;1.80;;;31.50;99.90;;;;;;5093835;28;20235;-77
2022/08/24 12:12:01;;;;;;;3.00;2.80;;;30.50;99.90;;;;;;5094421;28;20175;-77
2022/08/24 12:14:36;;;;;;;1.75;1.40;;;30.50;99.90;;;;;;5111369;28;20233;-75
2022/08/24 12:17:10;;;;;;;3.00;1.60;;;30.60;99.90;;;;;;5109131;28;20167;-76
2022/08/24 12:19:44;;;;;;;2.40;1.67;;;30.90;99.90;;;;;;5111428;28;20654;-75
2022/08/24 12:22:12;;;;;;;2.83;1.73;;;31.20;99.90;;;;;;5109943;28;20199;-76
2022/08/24 12:26:00;;;;;;;2.28;1.80;;;31.60;99.90;;;;;;5104724;28;20178;-75
2022/08/24 12:27:52;;;;;;;3.03;1.35;;;32.00;99.90;;;;;;5091930;28;20201;-76
2022/08/24 12:30:18;;;;;;;1.20;1.20;;;32.20;99.90;;;;;;5094596;28;20246;-76
2022/08/24 12:32:56;;;;;;;1.95;1.75;;;32.40;99.90;;;;;;5093650;28;20349;-76
2022/08/24 12:35:47;;;;;;;1.73;1.40;;;32.70;99.90;;;;;;5101414;28;20210;-75
2022/08/24 12:38:38;;;;;;;1.70;1.60;;;32.30;99.90;;;;;;5109264;28;20175;-77
2022/08/24 12:41:18;;;;;;;4.72;1.60;;;32.30;99.90;;;;;;5111439;28;20175;-76
2022/08/24 12:43:58;;;;;;;2.65;1.40;;;31.80;99.90;;;;;;5111160;28;20199;-76
2022/08/24 12:46:26;;;;;;;2.45;1.60;;;31.60;99.90;;;;;;5109541;28;20247;-76
2022/08/24 12:49:05;;;;;;;3.45;1.48;;;31.70;99.90;;;;;;5109393;28;20580;-75
2022/08/24 12:51:34;;;;;;;3.30;1.90;;;31.90;99.90;;;;;;5110548;28;20297;-75
2022/08/24 12:54:28;;;;;;;2.30;1.67;;;31.40;99.90;;;;;;5094980;28;20196;-74
2022/08/24 12:57:03;;;;;;;1.70;1.60;;;30.90;99.90;;;;;;5060666;28;20190;-74
2022/08/24 12:59:55;;;;;;;2.15;1.73;;;31.40;99.90;;;;;;5093395;28;20284;-75
2022/08/24 13:02:20;;;;;;;1.90;1.40;;;31.60;99.90;;;;;;5100672;28;20654;-75
2022/08/24 13:04:49;;;;;;;3.03;2.00;;;31.50;99.90;;;;;;5092240;28;20187;-74
2022/08/24 13:07:17;;;;;;;3.92;1.48;;;31.20;99.90;;;;;;5099726;28;20515;-74
2022/08/24 13:09:47;;;;;;;3.35;1.20;;;31.00;99.90;;;;;;5108839;28;20232;-74
2022/08/24 13:12:38;;;;;;;2.25;1.30;;;30.90;99.90;;;;;;5109049;28;20159;-75
2022/08/24 13:15:25;;;;;;;3.40;1.50;;;31.10;99.90;;;;;;5110516;28;20529;-75
2022/08/24 13:18:08;;;;;;;1.92;1.60;;;31.40;99.90;;;;;;5110633;28;20194;-75